Terminal Aerodrome Forecast
Issued by NWS

Home | Current Version | Previous Version | Text Only | Print | Product List | Glossary On
Versions: 1 2 3 4 5 6 7 8 9 10 11 12 13 14 15 16 17 18 19
000
FTUS43 KIND 231700
TAFBMG
TAF
KBMG 231727Z 2318/2418 17007KT P6SM FEW050 SCT100 BKN250
     FM240200 13004KT P6SM SCT100 BKN250
     FM240900 13004KT P6SM BKN100
     FM241500 17010KT P6SM OVC100=

USA.gov is the U.S. government's official web portal to all federal, state and local government web resources and services.